sensor_id;sensor_type;location;lat;lon;timestamp;pressure;altitude;pressure_sealevel;temperature;humidity
31082;BME280;17737;52.586;13.284;2023-03-24T00:01:07;100058.13;;;9.86;92.47
31082;BME280;17737;52.586;13.284;2023-03-24T00:03:42;100056.63;;;9.83;92.60
31082;BME280;17737;52.586;13.284;2023-03-24T00:06:23;100057.75;;;9.89;91.50
31082;BME280;17737;52.586;13.284;2023-03-24T00:08:56;100054.69;;;9.92;91.37
31082;BME280;17737;52.586;13.284;2023-03-24T00:11:29;100043.28;;;9.90;91.21
31082;BME280;17737;52.586;13.284;2023-03-24T00:14:09;100040.78;;;9.88;91.29
31082;BME280;17737;52.586;13.284;2023-03-24T00:16:43;100044.97;;;9.91;90.14
31082;BME280;17737;52.586;13.284;2023-03-24T00:19:20;100038.09;;;9.88;90.76
31082;BME280;17737;52.586;13.284;2023-03-24T00:21:54;100040.50;;;9.98;90.31
31082;BME280;17737;52.586;13.284;2023-03-24T00:24:31;100043.03;;;9.99;89.63
31082;BME280;17737;52.586;13.284;2023-03-24T00:27:04;100028.09;;;9.97;89.85
31082;BME280;17737;52.586;13.284;2023-03-24T00:29:41;100023.53;;;9.97;89.65
31082;BME280;17737;52.586;13.284;2023-03-24T00:32:15;100022.69;;;9.97;89.14
31082;BME280;17737;52.586;13.284;2023-03-24T00:34:49;100018.81;;;9.99;89.55
31082;BME280;17737;52.586;13.284;2023-03-24T00:37:25;100012.59;;;9.99;89.37
31082;BME280;17737;52.586;13.284;2023-03-24T00:39:59;100019.94;;;10.05;89.26
31082;BME280;17737;52.586;13.284;2023-03-24T00:42:35;100009.16;;;10.05;88.67
31082;BME280;17737;52.586;13.284;2023-03-24T00:45:09;100013.72;;;10.04;88.55
31082;BME280;17737;52.586;13.284;2023-03-24T00:47:45;100011.38;;;10.01;88.59
31082;BME280;17737;52.586;13.284;2023-03-24T00:50:22;99999.63;;;10.02;88.62
31082;BME280;17737;52.586;13.284;2023-03-24T00:53:01;100007.97;;;10.07;89.06
31082;BME280;17737;52.586;13.284;2023-03-24T00:55:34;100000.09;;;10.06;88.68
31082;BME280;17737;52.586;13.284;2023-03-24T00:58:10;100003.88;;;9.97;89.26
31082;BME280;17737;52.586;13.284;2023-03-24T01:00:48;100000.00;;;9.99;88.75
31082;BME280;17737;52.586;13.284;2023-03-24T01:03:23;99998.41;;;10.05;87.88
31082;BME280;17737;52.586;13.284;2023-03-24T01:06:00;99996.56;;;10.05;88.04
31082;BME280;17737;52.586;13.284;2023-03-24T01:08:35;99997.22;;;10.07;88.14
31082;BME280;17737;52.586;13.284;2023-03-24T01:11:06;99981.06;;;10.07;88.42
31082;BME280;17737;52.586;13.284;2023-03-24T01:13:37;99978.75;;;10.04;88.69
31082;BME280;17737;52.586;13.284;2023-03-24T01:16:08;99977.53;;;10.07;88.67
31082;BME280;17737;52.586;13.284;2023-03-24T01:18:39;99968.59;;;10.06;88.51
31082;BME280;17737;52.586;13.284;2023-03-24T01:21:09;99964.91;;;10.07;88.53
31082;BME280;17737;52.586;13.284;2023-03-24T01:23:39;99965.22;;;10.12;88.30
31082;BME280;17737;52.586;13.284;2023-03-24T01:26:09;99959.38;;;10.09;87.95
31082;BME280;17737;52.586;13.284;2023-03-24T01:28:43;99957.22;;;10.04;89.14
31082;BME280;17737;52.586;13.284;2023-03-24T01:31:12;99949.75;;;10.06;88.13
31082;BME280;17737;52.586;13.284;2023-03-24T01:33:44;99947.06;;;10.06;89.28
31082;BME280;17737;52.586;13.284;2023-03-24T01:36:23;99938.50;;;10.11;88.35
31082;BME280;17737;52.586;13.284;2023-03-24T01:38:57;99942.53;;;10.07;88.83
31082;BME280;17737;52.586;13.284;2023-03-24T01:41:37;99926.03;;;10.10;88.87
31082;BME280;17737;52.586;13.284;2023-03-24T01:44:30;99918.16;;;10.08;89.16
31082;BME280;17737;52.586;13.284;2023-03-24T01:47:02;99910.81;;;10.02;89.29
31082;BME280;17737;52.586;13.284;2023-03-24T01:49:39;99899.00;;;10.03;89.29
31082;BME280;17737;52.586;13.284;2023-03-24T01:52:16;99899.66;;;10.05;88.98
31082;BME280;17737;52.586;13.284;2023-03-24T01:54:51;99904.84;;;10.07;88.31
31082;BME280;17737;52.586;13.284;2023-03-24T01:57:28;99897.63;;;10.07;88.31
31082;BME280;17737;52.586;13.284;2023-03-24T02:00:02;99891.97;;;10.02;88.74
31082;BME280;17737;52.586;13.284;2023-03-24T02:02:35;99889.28;;;10.02;88.21
31082;BME280;17737;52.586;13.284;2023-03-24T02:05:11;99886.97;;;9.99;88.65
31082;BME280;17737;52.586;13.284;2023-03-24T02:07:47;99885.56;;;10.03;87.95
31082;BME280;17737;52.586;13.284;2023-03-24T02:10:22;99875.63;;;10.04;88.23
31082;BME280;17737;52.586;13.284;2023-03-24T02:12:51;99871.28;;;10.03;88.31
31082;BME280;17737;52.586;13.284;2023-03-24T02:15:19;99859.09;;;10.07;88.33
31082;BME280;17737;52.586;13.284;2023-03-24T02:17:56;99872.22;;;10.10;88.17
31082;BME280;17737;52.586;13.284;2023-03-24T02:21:01;99864.53;;;10.21;87.48
31082;BME280;17737;52.586;13.284;2023-03-24T02:27:33;99853.09;;;10.19;86.94
31082;BME280;17737;52.586;13.284;2023-03-24T02:30:30;99839.44;;;10.21;87.27
31082;BME280;17737;52.586;13.284;2023-03-24T02:33:56;99835.00;;;10.28;87.44
31082;BME280;17737;52.586;13.284;2023-03-24T02:40:21;99833.28;;;10.41;86.55
31082;BME280;17737;52.586;13.284;2023-03-24T02:43:11;99833.56;;;10.46;85.99
31082;BME280;17737;52.586;13.284;2023-03-24T02:46:07;99834.56;;;10.45;86.69
31082;BME280;17737;52.586;13.284;2023-03-24T02:48:48;99832.97;;;10.51;86.50
31082;BME280;17737;52.586;13.284;2023-03-24T02:51:34;99831.72;;;10.47;86.81
31082;BME280;17737;52.586;13.284;2023-03-24T02:54:17;99829.56;;;10.42;88.07
31082;BME280;17737;52.586;13.284;2023-03-24T02:57:04;99826.34;;;10.32;88.77
31082;BME280;17737;52.586;13.284;2023-03-24T02:59:40;99833.69;;;10.38;88.73
31082;BME280;17737;52.586;13.284;2023-03-24T03:02:21;99820.38;;;10.37;88.61
31082;BME280;17737;52.586;13.284;2023-03-24T03:04:59;99817.00;;;10.28;89.03
31082;BME280;17737;52.586;13.284;2023-03-24T03:07:35;99812.41;;;10.29;90.20
31082;BME280;17737;52.586;13.284;2023-03-24T03:10:13;99808.25;;;10.26;90.08
31082;BME280;17737;52.586;13.284;2023-03-24T03:12:54;99807.22;;;10.27;90.30
31082;BME280;17737;52.586;13.284;2023-03-24T03:15:41;99802.50;;;10.29;90.03
31082;BME280;17737;52.586;13.284;2023-03-24T03:18:23;99795.44;;;10.28;89.76
31082;BME280;17737;52.586;13.284;2023-03-24T03:21:08;99798.31;;;10.27;90.72
31082;BME280;17737;52.586;13.284;2023-03-24T03:23:48;99796.44;;;10.27;90.78
31082;BME280;17737;52.586;13.284;2023-03-24T03:26:28;99798.31;;;10.27;90.69
31082;BME280;17737;52.586;13.284;2023-03-24T03:29:05;99794.16;;;10.24;91.31
31082;BME280;17737;52.586;13.284;2023-03-24T03:31:41;99781.03;;;10.36;91.38
31082;BME280;17737;52.586;13.284;2023-03-24T03:34:21;99783.00;;;10.27;90.97
31082;BME280;17737;52.586;13.284;2023-03-24T03:37:02;99776.31;;;10.23;91.61
31082;BME280;17737;52.586;13.284;2023-03-24T03:39:39;99774.34;;;10.32;91.45
31082;BME280;17737;52.586;13.284;2023-03-24T03:42:15;99761.47;;;10.27;91.42
31082;BME280;17737;52.586;13.284;2023-03-24T03:44:49;99760.16;;;10.23;91.52
31082;BME280;17737;52.586;13.284;2023-03-24T03:47:19;99757.91;;;10.27;91.37
31082;BME280;17737;52.586;13.284;2023-03-24T03:49:49;99753.97;;;10.23;92.23
31082;BME280;17737;52.586;13.284;2023-03-24T03:52:18;99754.78;;;10.23;92.61
31082;BME280;17737;52.586;13.284;2023-03-24T03:54:48;99748.19;;;10.26;92.34
31082;BME280;17737;52.586;13.284;2023-03-24T03:57:20;99744.19;;;10.22;92.89
31082;BME280;17737;52.586;13.284;2023-03-24T03:59:59;99743.00;;;10.24;92.80
31082;BME280;17737;52.586;13.284;2023-03-24T04:02:55;99739.53;;;10.30;93.06
31082;BME280;17737;52.586;13.284;2023-03-24T04:05:42;99734.72;;;10.26;92.64
31082;BME280;17737;52.586;13.284;2023-03-24T04:08:24;99734.09;;;10.24;93.24
31082;BME280;17737;52.586;13.284;2023-03-24T04:14:13;99721.53;;;10.31;93.22
31082;BME280;17737;52.586;13.284;2023-03-24T04:16:58;99714.69;;;10.28;93.20
31082;BME280;17737;52.586;13.284;2023-03-24T04:19:48;99713.00;;;10.27;93.54
31082;BME280;17737;52.586;13.284;2023-03-24T04:22:39;99697.09;;;10.32;94.05
31082;BME280;17737;52.586;13.284;2023-03-24T04:25:27;99706.28;;;10.38;92.98
31082;BME280;17737;52.586;13.284;2023-03-24T04:28:11;99711.84;;;10.36;93.42
31082;BME280;17737;52.586;13.284;2023-03-24T04:30:53;99701.47;;;10.33;93.35
31082;BME280;17737;52.586;13.284;2023-03-24T04:33:33;99694.91;;;10.42;92.96
31082;BME280;17737;52.586;13.284;2023-03-24T04:36:11;99681.25;;;10.44;93.39
31082;BME280;17737;52.586;13.284;2023-03-24T04:38:47;99686.84;;;10.42;92.79
31082;BME280;17737;52.586;13.284;2023-03-24T04:41:21;99680.06;;;10.46;93.10
31082;BME280;17737;52.586;13.284;2023-03-24T04:43:55;99685.00;;;10.43;92.81
31082;BME280;17737;52.586;13.284;2023-03-24T04:46:25;99689.97;;;10.46;92.94
31082;BME280;17737;52.586;13.284;2023-03-24T04:48:55;99686.34;;;10.53;92.61
31082;BME280;17737;52.586;13.284;2023-03-24T04:51:23;99684.28;;;10.55;92.19
31082;BME280;17737;52.586;13.284;2023-03-24T04:53:54;99681.84;;;10.60;91.47
31082;BME280;17737;52.586;13.284;2023-03-24T04:56:29;99673.97;;;10.59;91.98
31082;BME280;17737;52.586;13.284;2023-03-24T04:59:02;99667.13;;;10.63;91.80
31082;BME280;17737;52.586;13.284;2023-03-24T05:01:30;99672.22;;;10.72;91.37
31082;BME280;17737;52.586;13.284;2023-03-24T05:04:04;99670.91;;;10.68;91.07
31082;BME280;17737;52.586;13.284;2023-03-24T05:06:33;99660.16;;;10.68;91.23
31082;BME280;17737;52.586;13.284;2023-03-24T05:09:01;99654.59;;;10.76;91.29
31082;BME280;17737;52.586;13.284;2023-03-24T05:11:30;99658.34;;;10.75;91.06
31082;BME280;17737;52.586;13.284;2023-03-24T05:13:58;99666.28;;;10.83;90.95
31082;BME280;17737;52.586;13.284;2023-03-24T05:16:27;99650.91;;;10.77;90.92
31082;BME280;17737;52.586;13.284;2023-03-24T05:18:55;99653.63;;;10.84;90.69
31082;BME280;17737;52.586;13.284;2023-03-24T05:21:24;99650.75;;;10.85;90.55
31082;BME280;17737;52.586;13.284;2023-03-24T05:23:52;99645.75;;;10.82;91.22
31082;BME280;17737;52.586;13.284;2023-03-24T05:26:21;99646.00;;;10.88;90.62
31082;BME280;17737;52.586;13.284;2023-03-24T05:28:49;99646.25;;;10.93;90.67
31082;BME280;17737;52.586;13.284;2023-03-24T05:31:17;99648.97;;;10.99;89.78
31082;BME280;17737;52.586;13.284;2023-03-24T05:33:45;99653.53;;;10.99;90.60
31082;BME280;17737;52.586;13.284;2023-03-24T05:36:14;99648.13;;;10.99;90.44
31082;BME280;17737;52.586;13.284;2023-03-24T05:38:43;99645.47;;;11.05;89.71
31082;BME280;17737;52.586;13.284;2023-03-24T05:41:11;99645.28;;;11.07;89.78
31082;BME280;17737;52.586;13.284;2023-03-24T05:43:39;99648.38;;;11.04;90.00
31082;BME280;17737;52.586;13.284;2023-03-24T05:46:07;99644.50;;;11.13;89.47
31082;BME280;17737;52.586;13.284;2023-03-24T05:48:35;99638.25;;;11.12;90.15
31082;BME280;17737;52.586;13.284;2023-03-24T05:51:03;99631.88;;;11.20;89.44
31082;BME280;17737;52.586;13.284;2023-03-24T05:53:32;99634.59;;;11.20;89.20
31082;BME280;17737;52.586;13.284;2023-03-24T05:56:01;99629.81;;;11.22;89.87
31082;BME280;17737;52.586;13.284;2023-03-24T05:58:31;99639.16;;;11.26;89.47
31082;BME280;17737;52.586;13.284;2023-03-24T06:01:05;99624.47;;;11.28;88.93
31082;BME280;17737;52.586;13.284;2023-03-24T06:03:35;99628.00;;;11.29;89.02
31082;BME280;17737;52.586;13.284;2023-03-24T06:06:07;99619.75;;;11.37;88.95
31082;BME280;17737;52.586;13.284;2023-03-24T06:08:40;99620.38;;;11.39;88.55
31082;BME280;17737;52.586;13.284;2023-03-24T06:11:12;99620.84;;;11.49;88.17
31082;BME280;17737;52.586;13.284;2023-03-24T06:13:40;99621.03;;;11.47;87.95
31082;BME280;17737;52.586;13.284;2023-03-24T06:16:08;99613.75;;;11.48;88.04
31082;BME280;17737;52.586;13.284;2023-03-24T06:18:36;99610.84;;;11.49;88.10
31082;BME280;17737;52.586;13.284;2023-03-24T06:21:06;99604.47;;;11.57;88.06
31082;BME280;17737;52.586;13.284;2023-03-24T06:23:34;99607.84;;;11.65;87.35
31082;BME280;17737;52.586;13.284;2023-03-24T06:26:07;99607.00;;;11.65;87.56
31082;BME280;17737;52.586;13.284;2023-03-24T06:28:38;99607.63;;;11.67;87.67
31082;BME280;17737;52.586;13.284;2023-03-24T06:31:10;99599.13;;;11.70;87.06
31082;BME280;17737;52.586;13.284;2023-03-24T06:33:40;99601.25;;;11.74;86.99
31082;BME280;17737;52.586;13.284;2023-03-24T06:36:10;99595.41;;;11.71;87.50
31082;BME280;17737;52.586;13.284;2023-03-24T06:38:39;99593.34;;;11.73;87.63
31082;BME280;17737;52.586;13.284;2023-03-24T06:41:08;99603.09;;;11.74;87.86
31082;BME280;17737;52.586;13.284;2023-03-24T06:43:37;99604.16;;;11.73;88.33
31082;BME280;17737;52.586;13.284;2023-03-24T06:46:05;99595.00;;;11.74;88.98
31082;BME280;17737;52.586;13.284;2023-03-24T06:48:35;99591.25;;;11.75;88.84
31082;BME280;17737;52.586;13.284;2023-03-24T06:51:04;99598.75;;;11.79;89.13
31082;BME280;17737;52.586;13.284;2023-03-24T06:53:33;99594.59;;;11.77;89.02
31082;BME280;17737;52.586;13.284;2023-03-24T06:56:01;99592.53;;;11.79;88.83
31082;BME280;17737;52.586;13.284;2023-03-24T06:58:29;99589.41;;;11.82;88.77
31082;BME280;17737;52.586;13.284;2023-03-24T07:01:00;99585.06;;;11.81;89.14
31082;BME280;17737;52.586;13.284;2023-03-24T07:03:28;99580.91;;;11.85;88.81
31082;BME280;17737;52.586;13.284;2023-03-24T07:05:58;99574.69;;;11.91;89.26
31082;BME280;17737;52.586;13.284;2023-03-24T07:08:27;99569.50;;;11.89;89.46
31082;BME280;17737;52.586;13.284;2023-03-24T07:11:05;99576.34;;;11.92;89.35
31082;BME280;17737;52.586;13.284;2023-03-24T07:13:35;99571.78;;;11.99;89.22
31082;BME280;17737;52.586;13.284;2023-03-24T07:16:06;99554.56;;;12.07;89.43
31082;BME280;17737;52.586;13.284;2023-03-24T07:18:34;99562.47;;;12.15;88.78
31082;BME280;17737;52.586;13.284;2023-03-24T07:21:02;99550.44;;;12.24;87.74
31082;BME280;17737;52.586;13.284;2023-03-24T07:23:30;99554.38;;;12.21;87.56
31082;BME280;17737;52.586;13.284;2023-03-24T07:25:58;99554.19;;;12.29;87.92
31082;BME280;17737;52.586;13.284;2023-03-24T07:28:26;99544.19;;;12.49;86.86
31082;BME280;17737;52.586;13.284;2023-03-24T07:30:54;99550.41;;;12.63;86.06
31082;BME280;17737;52.586;13.284;2023-03-24T07:33:25;99541.41;;;12.75;86.09
31082;BME280;17737;52.586;13.284;2023-03-24T07:35:54;99540.97;;;12.91;85.28
31082;BME280;17737;52.586;13.284;2023-03-24T07:38:22;99540.13;;;12.91;84.54
31082;BME280;17737;52.586;13.284;2023-03-24T07:40:51;99544.31;;;12.93;83.65
31082;BME280;17737;52.586;13.284;2023-03-24T07:43:20;99550.75;;;12.86;83.73
31082;BME280;17737;52.586;13.284;2023-03-24T07:45:48;99536.81;;;12.95;85.03
31082;BME280;17737;52.586;13.284;2023-03-24T07:48:16;99541.22;;;12.83;84.65
31082;BME280;17737;52.586;13.284;2023-03-24T07:50:45;99547.47;;;12.64;84.91
31082;BME280;17737;52.586;13.284;2023-03-24T07:53:13;99543.53;;;12.60;86.13
31082;BME280;17737;52.586;13.284;2023-03-24T07:55:45;99549.38;;;12.57;85.79
31082;BME280;17737;52.586;13.284;2023-03-24T07:58:13;99541.69;;;12.48;86.23
31082;BME280;17737;52.586;13.284;2023-03-24T08:00:41;99539.59;;;12.50;85.57
31082;BME280;17737;52.586;13.284;2023-03-24T08:03:11;99527.13;;;12.55;85.18
31082;BME280;17737;52.586;13.284;2023-03-24T08:05:41;99542.91;;;12.52;86.34
31082;BME280;17737;52.586;13.284;2023-03-24T08:08:11;99525.91;;;12.51;85.75
31082;BME280;17737;52.586;13.284;2023-03-24T08:10:39;99540.22;;;12.52;86.30
31082;BME280;17737;52.586;13.284;2023-03-24T08:13:08;99547.50;;;12.51;86.43
31082;BME280;17737;52.586;13.284;2023-03-24T08:15:36;99540.00;;;12.47;86.33
31082;BME280;17737;52.586;13.284;2023-03-24T08:18:04;99536.69;;;12.45;86.44
31082;BME280;17737;52.586;13.284;2023-03-24T08:20:32;99533.81;;;12.46;86.14
31082;BME280;17737;52.586;13.284;2023-03-24T08:23:01;99534.81;;;12.45;86.44
31082;BME280;17737;52.586;13.284;2023-03-24T08:25:31;99541.91;;;12.46;86.54
31082;BME280;17737;52.586;13.284;2023-03-24T08:28:00;99534.00;;;12.51;85.94
31082;BME280;17737;52.586;13.284;2023-03-24T08:30:28;99541.47;;;12.56;85.18
31082;BME280;17737;52.586;13.284;2023-03-24T08:32:58;99535.03;;;12.50;85.71
31082;BME280;17737;52.586;13.284;2023-03-24T08:35:29;99522.56;;;12.49;86.00
31082;BME280;17737;52.586;13.284;2023-03-24T08:38:00;99503.69;;;12.43;86.68
31082;BME280;17737;52.586;13.284;2023-03-24T08:40:35;99531.06;;;12.59;84.90
31082;BME280;17737;52.586;13.284;2023-03-24T08:43:06;99535.63;;;12.65;84.38
31082;BME280;17737;52.586;13.284;2023-03-24T08:45:36;99524.78;;;12.72;84.13
31082;BME280;17737;52.586;13.284;2023-03-24T08:48:06;99529.34;;;12.84;83.27
31082;BME280;17737;52.586;13.284;2023-03-24T08:50:37;99539.31;;;12.84;82.92
31082;BME280;17737;52.586;13.284;2023-03-24T08:53:07;99532.66;;;12.93;83.25
31082;BME280;17737;52.586;13.284;2023-03-24T08:55:38;99533.28;;;13.01;82.38
31082;BME280;17737;52.586;13.284;2023-03-24T08:58:12;99530.75;;;13.00;81.58
31082;BME280;17737;52.586;13.284;2023-03-24T09:00:43;99522.66;;;13.00;82.59
31082;BME280;17737;52.586;13.284;2023-03-24T09:03:13;99532.44;;;13.07;81.91
31082;BME280;17737;52.586;13.284;2023-03-24T09:05:45;99541.78;;;13.11;81.86
31082;BME280;17737;52.586;13.284;2023-03-24T09:08:16;99541.56;;;13.06;81.41
31082;BME280;17737;52.586;13.284;2023-03-24T09:10:46;99547.00;;;13.06;81.22
31082;BME280;17737;52.586;13.284;2023-03-24T09:13:17;99538.44;;;13.16;81.07
31082;BME280;17737;52.586;13.284;2023-03-24T09:15:47;99543.84;;;13.16;80.88
31082;BME280;17737;52.586;13.284;2023-03-24T09:18:18;99539.22;;;13.30;80.77
31082;BME280;17737;52.586;13.284;2023-03-24T09:20:47;99552.31;;;13.33;80.16
31082;BME280;17737;52.586;13.284;2023-03-24T09:23:17;99564.34;;;13.43;79.24
31082;BME280;17737;52.586;13.284;2023-03-24T09:25:48;99559.91;;;13.49;79.00
31082;BME280;17737;52.586;13.284;2023-03-24T09:28:17;99556.28;;;13.68;78.57
31082;BME280;17737;52.586;13.284;2023-03-24T09:30:46;99566.00;;;13.82;77.82
31082;BME280;17737;52.586;13.284;2023-03-24T09:33:15;99579.66;;;13.93;77.59
31082;BME280;17737;52.586;13.284;2023-03-24T09:35:44;99569.56;;;14.07;76.42
31082;BME280;17737;52.586;13.284;2023-03-24T09:38:12;99571.19;;;14.14;76.31
31082;BME280;17737;52.586;13.284;2023-03-24T09:40:40;99570.91;;;14.29;76.70
31082;BME280;17737;52.586;13.284;2023-03-24T09:43:17;99571.97;;;14.21;75.66
31082;BME280;17737;52.586;13.284;2023-03-24T09:45:53;99574.75;;;14.08;76.27
31082;BME280;17737;52.586;13.284;2023-03-24T09:48:30;99580.91;;;13.97;76.82
31082;BME280;17737;52.586;13.284;2023-03-24T09:51:05;99580.84;;;14.04;76.66
31082;BME280;17737;52.586;13.284;2023-03-24T09:53:41;99580.31;;;14.20;76.25
31082;BME280;17737;52.586;13.284;2023-03-24T09:56:17;99577.78;;;14.31;75.33
31082;BME280;17737;52.586;13.284;2023-03-24T09:58:58;99585.22;;;14.36;75.42
31082;BME280;17737;52.586;13.284;2023-03-24T10:01:29;99590.41;;;14.37;74.45
31082;BME280;17737;52.586;13.284;2023-03-24T10:03:59;99593.81;;;14.33;75.33
31082;BME280;17737;52.586;13.284;2023-03-24T10:06:30;99591.16;;;14.26;76.11
31082;BME280;17737;52.586;13.284;2023-03-24T10:09:22;99588.69;;;14.12;76.94
31082;BME280;17737;52.586;13.284;2023-03-24T10:12:04;99590.31;;;14.19;76.49
31082;BME280;17737;52.586;13.284;2023-03-24T10:14:54;99587.94;;;14.36;75.00
31082;BME280;17737;52.586;13.284;2023-03-24T10:17:39;99589.22;;;14.58;73.73
31082;BME280;17737;52.586;13.284;2023-03-24T10:20:23;99592.25;;;14.68;71.87
31082;BME280;17737;52.586;13.284;2023-03-24T10:23:03;99584.72;;;14.70;70.87
31082;BME280;17737;52.586;13.284;2023-03-24T10:25:50;99595.28;;;14.78;70.32
31082;BME280;17737;52.586;13.284;2023-03-24T10:28:25;99585.19;;;14.85;68.40
31082;BME280;17737;52.586;13.284;2023-03-24T10:31:02;99582.47;;;14.85;68.12
31082;BME280;17737;52.586;13.284;2023-03-24T10:33:38;99587.78;;;15.16;67.79
31082;BME280;17737;52.586;13.284;2023-03-24T10:36:10;99589.63;;;15.40;66.71
31082;BME280;17737;52.586;13.284;2023-03-24T10:38:40;99580.81;;;15.45;66.53
31082;BME280;17737;52.586;13.284;2023-03-24T10:41:14;99584.03;;;15.35;67.71
31082;BME280;17737;52.586;13.284;2023-03-24T10:43:45;99594.13;;;15.28;68.22
31082;BME280;17737;52.586;13.284;2023-03-24T10:46:20;99593.94;;;15.05;69.24
31082;BME280;17737;52.586;13.284;2023-03-24T10:48:51;99603.84;;;15.18;68.76
31082;BME280;17737;52.586;13.284;2023-03-24T10:51:24;99594.63;;;15.19;68.71
31082;BME280;17737;52.586;13.284;2023-03-24T10:54:09;99593.75;;;15.43;68.24
31082;BME280;17737;52.586;13.284;2023-03-24T10:56:40;99600.59;;;15.27;68.64
31082;BME280;17737;52.586;13.284;2023-03-24T10:59:20;99599.09;;;15.31;68.22
31082;BME280;17737;52.586;13.284;2023-03-24T11:01:59;99589.63;;;15.40;67.54
31082;BME280;17737;52.586;13.284;2023-03-24T11:04:49;99597.97;;;15.39;67.40
31082;BME280;17737;52.586;13.284;2023-03-24T11:07:22;99604.69;;;15.18;67.31
31082;BME280;17737;52.586;13.284;2023-03-24T11:10:03;99613.34;;;15.27;67.41
31082;BME280;17737;52.586;13.284;2023-03-24T11:12:36;99613.00;;;15.41;66.53
31082;BME280;17737;52.586;13.284;2023-03-24T11:15:16;99624.56;;;15.12;67.30
31082;BME280;17737;52.586;13.284;2023-03-24T11:17:54;99620.28;;;15.23;67.56
31082;BME280;17737;52.586;13.284;2023-03-24T11:20:28;99610.56;;;15.33;66.97
31082;BME280;17737;52.586;13.284;2023-03-24T11:23:01;99595.81;;;15.47;66.69
31082;BME280;17737;52.586;13.284;2023-03-24T11:25:33;99619.38;;;15.65;66.23
31082;BME280;17737;52.586;13.284;2023-03-24T11:28:06;99611.66;;;15.80;65.73
31082;BME280;17737;52.586;13.284;2023-03-24T11:30:44;99610.72;;;15.56;64.48
31082;BME280;17737;52.586;13.284;2023-03-24T11:33:19;99615.94;;;15.40;64.27
31082;BME280;17737;52.586;13.284;2023-03-24T11:36:05;99624.63;;;15.48;63.93
31082;BME280;17737;52.586;13.284;2023-03-24T11:38:58;99615.91;;;15.58;63.48
31082;BME280;17737;52.586;13.284;2023-03-24T11:41:27;99625.31;;;15.37;63.68
31082;BME280;17737;52.586;13.284;2023-03-24T11:46:47;99622.34;;;15.64;63.10
31082;BME280;17737;52.586;13.284;2023-03-24T11:49:24;99632.06;;;15.53;63.06
31082;BME280;17737;52.586;13.284;2023-03-24T11:51:57;99641.22;;;15.40;63.47
31082;BME280;17737;52.586;13.284;2023-03-24T11:54:29;99637.50;;;15.53;63.34
31082;BME280;17737;52.586;13.284;2023-03-24T11:57:04;99642.63;;;15.61;63.23
31082;BME280;17737;52.586;13.284;2023-03-24T11:59:39;99647.94;;;15.56;63.31
31082;BME280;17737;52.586;13.284;2023-03-24T12:02:24;99637.72;;;15.70;62.98
31082;BME280;17737;52.586;13.284;2023-03-24T12:05:20;99632.44;;;16.04;62.54
31082;BME280;17737;52.586;13.284;2023-03-24T12:08:23;99612.97;;;15.78;62.34
31082;BME280;17737;52.586;13.284;2023-03-24T12:11:06;99625.31;;;15.92;62.64
31082;BME280;17737;52.586;13.284;2023-03-24T12:13:43;99603.72;;;15.97;61.96
31082;BME280;17737;52.586;13.284;2023-03-24T12:16:33;99616.00;;;15.99;61.26
31082;BME280;17737;52.586;13.284;2023-03-24T12:19:36;99627.50;;;16.13;61.03
31082;BME280;17737;52.586;13.284;2023-03-24T12:22:26;99642.94;;;15.71;59.51
31082;BME280;17737;52.586;13.284;2023-03-24T12:25:21;99639.84;;;15.68;58.90
31082;BME280;17737;52.586;13.284;2023-03-24T12:28:12;99635.91;;;15.64;60.03
31082;BME280;17737;52.586;13.284;2023-03-24T12:31:25;99643.97;;;15.70;61.07
31082;BME280;17737;52.586;13.284;2023-03-24T12:34:22;99651.16;;;15.65;61.05
31082;BME280;17737;52.586;13.284;2023-03-24T12:37:22;99645.56;;;15.59;59.31
31082;BME280;17737;52.586;13.284;2023-03-24T12:40:06;99636.16;;;15.62;59.29
31082;BME280;17737;52.586;13.284;2023-03-24T12:42:56;99629.25;;;15.78;59.44
31082;BME280;17737;52.586;13.284;2023-03-24T12:45:39;99625.81;;;15.52;57.43
31082;BME280;17737;52.586;13.284;2023-03-24T12:48:30;99618.34;;;15.48;54.96
31082;BME280;17737;52.586;13.284;2023-03-24T12:51:13;99618.13;;;15.49;54.37
31082;BME280;17737;52.586;13.284;2023-03-24T12:54:01;99625.41;;;15.31;53.80
31082;BME280;17737;52.586;13.284;2023-03-24T12:56:39;99636.88;;;15.15;55.35
31082;BME280;17737;52.586;13.284;2023-03-24T12:59:13;99643.41;;;15.07;53.66
31082;BME280;17737;52.586;13.284;2023-03-24T13:01:46;99656.13;;;15.07;53.08
31082;BME280;17737;52.586;13.284;2023-03-24T13:04:22;99646.25;;;15.12;53.12
31082;BME280;17737;52.586;13.284;2023-03-24T13:07:00;99646.19;;;15.19;52.47
31082;BME280;17737;52.586;13.284;2023-03-24T13:09:38;99642.94;;;15.10;51.53
31082;BME280;17737;52.586;13.284;2023-03-24T13:12:15;99662.22;;;15.02;50.29
31082;BME280;17737;52.586;13.284;2023-03-24T13:14:52;99660.25;;;14.91;50.78
31082;BME280;17737;52.586;13.284;2023-03-24T13:17:32;99673.47;;;15.06;50.31
31082;BME280;17737;52.586;13.284;2023-03-24T13:20:11;99676.00;;;15.01;50.09
31082;BME280;17737;52.586;13.284;2023-03-24T13:22:41;99667.03;;;15.00;50.09
31082;BME280;17737;52.586;13.284;2023-03-24T13:25:21;99665.31;;;15.06;50.48
31082;BME280;17737;52.586;13.284;2023-03-24T13:28:00;99665.47;;;15.11;50.48
31082;BME280;17737;52.586;13.284;2023-03-24T13:30:35;99661.00;;;14.98;50.55
31082;BME280;17737;52.586;13.284;2023-03-24T13:33:11;99651.38;;;15.02;51.05
31082;BME280;17737;52.586;13.284;2023-03-24T13:36:05;99666.88;;;14.95;51.20
31082;BME280;17737;52.586;13.284;2023-03-24T13:38:46;99675.19;;;15.00;51.73
31082;BME280;17737;52.586;13.284;2023-03-24T13:41:21;99693.56;;;14.98;51.87
31082;BME280;17737;52.586;13.284;2023-03-24T13:43:58;99706.19;;;14.86;52.39
31082;BME280;17737;52.586;13.284;2023-03-24T13:46:28;99705.31;;;14.92;52.64